Time;durP1;ratioP1;P1;durP2;ratioP2;P2;SDS_P1;SDS_P2;PMS_P1;PMS_P2;Temp;Humidity;BMP_temperature;BMP_pressure;BME280_temperature;BME280_humidity;BME280_pressure;Samples;Min_cycle;Max_cycle;Signal;HPM_P1;HPM_P2
2020/12/24 00:00:08;;;;;;;9.10;1.77;;;;;;;7.77;92.41;100596.06;5109813;28;20027;-77
2020/12/24 00:02:34;;;;;;;7.60;2.05;;;;;;;7.77;92.13;100596.94;5102194;28;20413;-78
2020/12/24 00:04:59;;;;;;;12.00;2.13;;;;;;;7.74;91.83;100594.28;5087114;28;20061;-77
2020/12/24 00:07:24;;;;;;;7.30;2.17;;;;;;;7.65;92.07;100593.16;5091332;28;20073;-79
2020/12/24 00:09:50;;;;;;;13.65;2.08;;;;;;;7.68;92.00;100585.56;5093854;28;21955;-78
2020/12/24 00:12:15;;;;;;;8.25;1.63;;;;;;;7.68;91.53;100586.44;5085099;28;20023;-77
2020/12/24 00:14:41;;;;;;;9.23;1.65;;;;;;;7.68;92.00;100588.13;5084409;28;20024;-78
2020/12/24 00:17:07;;;;;;;11.45;1.95;;;;;;;7.74;91.35;100591.72;5088682;28;20023;-81
2020/12/24 00:19:32;;;;;;;9.40;1.80;;;;;;;7.68;91.18;100588.13;5111737;28;20484;-79
2020/12/24 00:21:57;;;;;;;8.10;1.60;;;;;;;7.69;91.12;100588.16;5116261;28;20028;-79
2020/12/24 00:24:23;;;;;;;8.77;1.27;;;;;;;7.75;90.57;100595.16;5103525;28;20028;-79
2020/12/24 00:26:48;;;;;;;6.32;1.73;;;;;;;7.74;90.21;100590.88;5088026;28;20027;-79
2020/12/24 00:29:13;;;;;;;8.47;2.00;;;;;;;7.73;90.69;100591.69;5096249;22;20036;-79
2020/12/24 00:31:41;;;;;;;8.67;1.43;;;;;;;7.75;90.17;100595.16;5083364;28;20274;-77
2020/12/24 00:34:07;;;;;;;10.03;1.77;;;;;;;7.72;90.38;100598.50;5067709;28;20273;-78
2020/12/24 00:36:33;;;;;;;8.85;1.83;;;;;;;7.77;90.48;100596.06;5065077;28;20016;-77
2020/12/24 00:38:58;;;;;;;9.07;1.30;;;;;;;7.77;89.96;100588.41;5071474;28;20089;-75
2020/12/24 00:41:24;;;;;;;6.53;1.52;;;;;;;7.66;89.50;100594.88;5060800;28;20033;-78
2020/12/24 00:43:50;;;;;;;11.48;1.75;;;;;;;7.66;89.60;100595.75;5049744;28;21730;-77
2020/12/24 00:46:15;;;;;;;6.63;0.98;;;;;;;7.60;89.95;100599.81;5043057;28;20099;-78
2020/12/24 00:48:41;;;;;;;5.70;0.95;;;;;;;7.53;89.39;100592.78;5046571;28;20032;-79
2020/12/24 00:51:06;;;;;;;9.23;1.47;;;;;;;7.36;88.99;100589.66;5042426;28;20478;-78
2020/12/24 00:53:31;;;;;;;11.05;1.45;;;;;;;7.35;89.96;100587.91;5068011;28;20055;-78
2020/12/24 00:55:57;;;;;;;8.10;1.08;;;;;;;7.28;90.28;100581.75;5046323;28;20021;-77
2020/12/24 00:58:22;;;;;;;13.35;2.30;;;;;;;7.26;90.30;100577.41;5051348;28;20020;-78
2020/12/24 01:00:47;;;;;;;5.88;1.30;;;;;;;7.20;90.43;100577.22;5045530;28;20029;-78
2020/12/24 01:03:13;;;;;;;5.87;1.30;;;;;;;7.19;90.21;100578.91;5059918;28;20460;-78
2020/12/24 01:05:38;;;;;;;6.30;1.10;;;;;;;7.09;90.64;100579.41;5049778;28;20345;-77
2020/12/24 01:08:03;;;;;;;5.30;1.25;;;;;;;7.07;90.41;100575.94;5046131;28;20029;-78
2020/12/24 01:10:29;;;;;;;7.00;0.95;;;;;;;7.11;90.59;100585.44;5050155;28;20086;-78
2020/12/24 01:12:54;;;;;;;6.75;0.90;;;;;;;7.06;90.10;100575.06;5048396;28;20020;-78
2020/12/24 01:15:19;;;;;;;7.45;1.23;;;;;;;7.05;90.55;100588.66;5044982;28;20028;-78
2020/12/24 01:17:45;;;;;;;6.47;0.90;;;;;;;7.12;90.39;100584.59;5059221;28;20017;-77
2020/12/24 01:20:10;;;;;;;9.20;1.57;;;;;;;7.12;91.12;100594.81;5064603;28;20036;-78
2020/12/24 01:22:35;;;;;;;4.67;1.07;;;;;;;7.25;90.56;100591.88;5046539;28;20107;-77
2020/12/24 01:25:03;;;;;;;7.17;1.40;;;;;;;7.30;90.43;100592.88;5048457;28;20271;-78
2020/12/24 01:27:28;;;;;;;9.77;1.47;;;;;;;7.39;90.29;100584.66;5063637;28;20321;-78
2020/12/24 01:29:53;;;;;;;10.57;2.43;;;;;;;7.44;90.03;100589.09;5043796;28;20107;-77
2020/12/24 01:32:19;;;;;;;8.50;1.03;;;;;;;7.43;89.99;100597.56;5043288;28;20270;-78
2020/12/24 01:34:44;;;;;;;10.20;1.85;;;;;;;7.44;89.22;100593.31;5063744;28;20277;-78
2020/12/24 01:37:09;;;;;;;4.55;1.70;;;;;;;7.47;89.23;100601.94;5047634;28;20066;-76
2020/12/24 01:39:35;;;;;;;8.60;1.45;;;;;;;7.50;89.33;100596.09;5045056;28;20021;-77
2020/12/24 01:42:00;;;;;;;9.53;1.27;;;;;;;7.49;89.31;100602.91;5046949;28;20028;-79
2020/12/24 01:44:25;;;;;;;6.95;1.38;;;;;;;7.53;88.99;100603.88;5044616;28;20024;-78
2020/12/24 01:46:51;;;;;;;10.27;1.37;;;;;;;7.49;89.20;100607.16;5047295;28;20040;-78
2020/12/24 01:49:17;;;;;;;10.23;1.40;;;;;;;7.59;87.85;100603.19;5064039;28;20028;-78
2020/12/24 01:51:49;;;;;;;7.60;1.15;;;;;;;7.53;88.64;100598.75;5044927;28;20066;-78
2020/12/24 01:54:15;;;;;;;9.77;1.37;;;;;;;7.54;88.91;100597.94;5049959;28;20027;-78
2020/12/24 01:56:41;;;;;;;;;;;;;;;7.53;89.15;100591.09;5043571;28;20095;-77
2020/12/24 01:59:06;;;;;;;10.83;1.20;;;;;;;7.53;88.91;100588.53;5062758;28;20343;-80
2020/12/24 02:01:31;;;;;;;9.23;1.10;;;;;;;7.47;89.14;100594.28;5061996;28;20071;-78
2020/12/24 02:03:57;;;;;;;10.23;1.07;;;;;;;7.48;88.24;100585.84;5060054;28;20111;-78
2020/12/24 02:06:22;;;;;;;4.75;1.05;;;;;;;7.46;88.76;100587.44;5061205;28;20081;-79
2020/12/24 02:08:47;;;;;;;9.73;1.37;;;;;;;7.42;87.86;100588.16;5044949;28;20512;-79
2020/12/24 02:11:13;;;;;;;4.00;1.00;;;;;;;7.40;88.24;100591.50;5045740;28;20366;-79
2020/12/24 02:13:38;;;;;;;7.05;0.88;;;;;;;7.38;88.23;100588.03;5065383;28;20441;-75
2020/12/24 02:16:03;;;;;;;6.97;1.35;;;;;;;7.37;88.84;100591.41;5044836;28;20033;-77
2020/12/24 02:18:29;;;;;;;8.27;1.20;;;;;;;7.31;88.80;100580.97;5061011;28;20076;-80
2020/12/24 02:20:54;;;;;;;11.15;1.00;;;;;;;7.21;88.76;100584.94;5045226;28;20267;-80
2020/12/24 02:23:20;;;;;;;8.30;1.27;;;;;;;7.21;89.06;100584.94;5044938;28;20097;-79
2020/12/24 02:25:45;;;;;;;16.57;1.47;;;;;;;7.31;88.82;100581.84;5041313;28;20036;-77
2020/12/24 02:28:11;;;;;;;5.30;1.38;;;;;;;7.28;89.07;100575.78;5043436;28;20107;-79
2020/12/24 02:30:37;;;;;;;5.10;0.88;;;;;;;7.25;89.21;100581.66;5059028;28;20028;-78
2020/12/24 02:33:04;;;;;;;12.53;1.30;;;;;;;7.21;89.82;100578.97;5060745;28;20116;-79
2020/12/24 02:35:29;;;;;;;5.83;1.07;;;;;;;7.32;89.35;100577.59;5045283;28;20029;-79
2020/12/24 02:37:55;;;;;;;6.65;1.20;;;;;;;7.22;89.87;100576.44;5045022;28;20028;-77
2020/12/24 02:40:20;;;;;;;6.85;1.45;;;;;;;7.24;89.42;100562.03;5046224;28;20024;-78
2020/12/24 02:42:45;;;;;;;9.55;1.33;;;;;;;7.27;89.74;100567.25;5044371;28;20119;-78
2020/12/24 02:45:11;;;;;;;6.55;1.40;;;;;;;7.16;90.15;100574.56;5045761;28;20024;-79
2020/12/24 02:47:36;;;;;;;6.75;0.88;;;;;;;7.08;89.65;100578.53;5058840;28;20028;-78
2020/12/24 02:50:04;;;;;;;6.78;1.05;;;;;;;7.14;90.04;100572.75;5048039;28;20025;-78
2020/12/24 02:52:29;;;;;;;7.40;1.27;;;;;;;7.00;89.99;100571.44;5045910;28;20028;-78
2020/12/24 02:54:55;;;;;;;4.20;1.02;;;;;;;6.98;90.27;100580.72;5047877;28;20024;-78
2020/12/24 02:57:20;;;;;;;10.80;1.30;;;;;;;6.89;90.30;100581.31;5039856;28;20053;-78
2020/12/24 02:59:45;;;;;;;9.85;1.63;;;;;;;6.96;90.89;100578.13;5063306;28;20051;-79
2020/12/24 03:02:11;;;;;;;13.27;1.30;;;;;;;7.00;90.30;100582.53;5044713;28;20112;-78
2020/12/24 03:04:36;;;;;;;8.83;1.10;;;;;;;6.96;90.21;100584.94;5043018;28;20275;-79
2020/12/24 03:07:01;;;;;;;8.32;1.33;;;;;;;6.95;90.56;100580.63;5044792;28;20039;-78
2020/12/24 03:09:26;;;;;;;9.27;1.80;;;;;;;6.94;90.29;100581.44;5045711;28;20039;-79
2020/12/24 03:11:52;;;;;;;12.73;2.17;;;;;;;6.99;90.30;100577.38;5045337;28;20282;-78
2020/12/24 03:14:17;;;;;;;9.55;1.63;;;;;;;7.00;91.06;100582.53;5044030;28;20159;-78
2020/12/24 03:16:43;;;;;;;7.75;1.27;;;;;;;7.01;90.68;100574.03;5052349;28;20054;-78
2020/12/24 03:19:09;;;;;;;9.45;1.77;;;;;;;7.07;90.21;100578.47;5044462;28;20031;-79
2020/12/24 03:21:35;;;;;;;7.13;0.90;;;;;;;7.08;90.44;100580.22;5046093;28;20025;-78
2020/12/24 03:24:00;;;;;;;7.60;1.05;;;;;;;7.05;90.33;100580.13;5062666;28;20032;-78
2020/12/24 03:26:25;;;;;;;6.97;1.48;;;;;;;7.14;90.34;100571.06;5048088;28;20029;-79
2020/12/24 03:28:51;;;;;;;9.43;1.33;;;;;;;7.13;90.00;100573.56;5040325;28;20116;-78
2020/12/24 03:31:22;;;;;;;9.35;1.42;;;;;;;7.10;90.79;100571.78;5046047;28;20024;-79
2020/12/24 03:33:47;;;;;;;13.77;1.63;;;;;;;7.23;90.30;100573.06;5060220;28;20031;-78
2020/12/24 03:36:12;;;;;;;10.02;1.40;;;;;;;7.22;89.99;100576.44;5046606;28;20020;-78
2020/12/24 03:38:37;;;;;;;9.30;1.30;;;;;;;7.16;90.83;100576.25;5063062;28;20051;-76
2020/12/24 03:41:03;;;;;;;9.47;1.60;;;;;;;7.14;90.59;100573.63;5063604;28;20325;-79
2020/12/24 03:43:28;;;;;;;7.50;1.50;;;;;;;7.17;90.17;100568.63;5047461;28;20166;-78
2020/12/24 03:45:53;;;;;;;5.77;1.17;;;;;;;7.23;90.01;100569.66;5040614;28;20331;-78
2020/12/24 03:48:19;;;;;;;7.77;1.30;;;;;;;7.26;90.13;100572.31;5048532;28;20490;-78
2020/12/24 03:50:44;;;;;;;11.60;1.73;;;;;;;7.21;90.41;100567.06;5067547;28;20051;-76
2020/12/24 03:53:10;;;;;;;7.18;1.40;;;;;;;7.31;90.24;100571.63;5047810;28;20032;-78
2020/12/24 03:55:35;;;;;;;9.93;1.63;;;;;;;7.31;89.72;100573.31;5046190;28;20107;-78
2020/12/24 03:58:00;;;;;;;9.60;1.07;;;;;;;7.27;90.34;100574.91;5044831;28;20029;-79
2020/12/24 04:00:25;;;;;;;6.60;1.37;;;;;;;7.24;90.43;100579.91;5043720;28;20795;-81
2020/12/24 04:02:51;;;;;;;11.03;1.70;;;;;;;7.34;90.44;100594.72;5041427;28;20025;-79
2020/12/24 04:05:16;;;;;;;11.80;1.90;;;;;;;7.52;89.33;100607.25;5065447;28;20016;-79
2020/12/24 04:07:41;;;;;;;2.13;1.40;;;;;;;7.08;87.45;100628.75;5065535;28;20687;-78
2020/12/24 04:10:06;;;;;;;2.93;1.70;;;;;;;6.43;89.38;100630.69;5049247;28;20047;-79
2020/12/24 04:12:32;;;;;;;2.78;1.40;;;;;;;5.96;91.63;100646.78;5064753;28;20020;-76
2020/12/24 04:14:57;;;;;;;1.30;0.63;;;;;;;5.42;92.03;100658.13;5067348;28;20390;-77
2020/12/24 04:17:22;;;;;;;3.55;0.80;;;;;;;5.13;93.41;100667.97;5044710;28;20025;-78
2020/12/24 04:19:47;;;;;;;2.40;0.80;;;;;;;4.95;93.47;100675.69;5063887;28;20031;-78
2020/12/24 04:22:13;;;;;;;3.13;0.70;;;;;;;4.85;93.68;100686.25;5043462;28;20301;-76
2020/12/24 04:24:38;;;;;;;1.30;0.50;;;;;;;4.77;94.44;100707.97;5041756;28;20067;-77
2020/12/24 04:27:03;;;;;;;1.80;0.80;;;;;;;4.66;93.85;100704.06;5043685;28;20282;-77
2020/12/24 04:29:28;;;;;;;2.43;0.50;;;;;;;4.58;93.98;100715.59;5063778;28;20025;-77
2020/12/24 04:31:54;;;;;;;4.57;0.70;;;;;;;4.60;94.55;100713.97;5060092;28;20282;-79
2020/12/24 04:34:19;;;;;;;1.60;0.60;;;;;;;4.52;93.68;100733.09;5047400;28;20025;-78
2020/12/24 04:36:49;;;;;;;2.30;0.77;;;;;;;4.50;94.10;100730.47;5050193;28;20434;-78
2020/12/24 04:39:14;;;;;;;2.90;0.60;;;;;;;4.39;93.83;100734.22;5045543;28;20286;-79
2020/12/24 04:41:39;;;;;;;4.23;0.50;;;;;;;4.29;93.42;100740.53;5044993;28;20081;-78
2020/12/24 04:44:06;;;;;;;7.10;0.60;;;;;;;4.29;94.30;100737.13;5050965;28;20035;-79
2020/12/24 04:46:33;;;;;;;1.40;0.40;;;;;;;4.21;93.70;100757.09;5060994;28;20659;-78
2020/12/24 04:48:58;;;;;;;2.03;0.50;;;;;;;4.19;93.65;100761.22;5046785;28;20437;-77
2020/12/24 04:51:25;;;;;;;2.40;0.47;;;;;;;4.17;93.49;100755.19;5041028;28;20020;-78
2020/12/24 04:53:51;;;;;;;4.13;0.80;;;;;;;4.15;93.66;100769.50;5047677;28;20096;-77
2020/12/24 04:56:16;;;;;;;3.65;0.45;;;;;;;4.16;94.16;100765.28;5047404;28;20494;-79
2020/12/24 04:58:43;;;;;;;2.63;0.40;;;;;;;4.12;93.90;100777.00;5049478;28;20020;-77
2020/12/24 05:01:16;;;;;;;0.90;0.30;;;;;;;4.09;93.50;100784.47;5042562;28;20024;-78
2020/12/24 05:03:42;;;;;;;0.87;0.30;;;;;;;4.06;93.14;100785.19;5043351;28;20027;-78
2020/12/24 05:06:17;;;;;;;1.40;0.55;;;;;;;3.99;93.35;100795.00;5045482;28;20024;-77
2020/12/24 05:08:53;;;;;;;1.95;0.40;;;;;;;4.03;93.96;100804.50;5062367;28;20099;-78
2020/12/24 05:11:28;;;;;;;0.47;0.30;;;;;;;3.96;93.81;100815.19;5063273;28;20519;-78
2020/12/24 05:14:24;;;;;;;1.60;0.30;;;;;;;3.96;93.73;100828.75;5045506;28;20143;-77
2020/12/24 05:16:56;;;;;;;2.00;0.83;;;;;;;3.82;93.12;100834.81;5053530;28;20452;-78
2020/12/24 05:19:22;;;;;;;0.57;0.30;;;;;;;3.83;93.80;100828.06;5047495;28;20070;-77
2020/12/24 05:21:47;;;;;;;0.65;0.30;;;;;;;3.78;93.62;100839.66;5046873;28;20032;-78
2020/12/24 05:24:27;;;;;;;3.43;0.40;;;;;;;3.74;93.07;100846.25;5042164;28;20059;-77
2020/12/24 05:27:05;;;;;;;1.53;0.40;;;;;;;3.67;92.30;100849.28;5043604;28;20482;-77
2020/12/24 05:29:31;;;;;;;0.33;0.30;;;;;;;3.71;93.36;100849.50;5068837;28;20021;-74
2020/12/24 05:31:56;;;;;;;0.82;0.32;;;;;;;3.65;92.85;100859.38;5060604;28;20441;-76
2020/12/24 05:34:21;;;;;;;2.87;0.40;;;;;;;3.66;92.75;100863.66;5035961;28;20035;-77
2020/12/24 05:36:47;;;;;;;1.40;0.23;;;;;;;3.70;92.76;100869.75;5046410;28;20016;-77
2020/12/24 05:39:13;;;;;;;0.43;0.30;;;;;;;3.72;92.80;100891.91;5061155;28;20282;-78
2020/12/24 05:41:39;;;;;;;1.33;0.30;;;;;;;3.75;92.60;100873.41;5058354;28;20032;-77
2020/12/24 05:44:09;;;;;;;2.20;0.52;;;;;;;3.73;92.56;100886.03;5062840;28;20078;-77
2020/12/24 05:46:42;;;;;;;2.13;0.43;;;;;;;3.70;92.91;100880.78;5062015;28;20032;-80
2020/12/24 05:49:17;;;;;;;0.93;0.40;;;;;;;3.71;92.82;100885.06;5041380;28;20470;-79
2020/12/24 05:51:51;;;;;;;1.07;0.33;;;;;;;3.70;93.41;100890.97;5064798;28;20032;-77
2020/12/24 05:54:16;;;;;;;1.17;0.50;;;;;;;3.71;92.98;100887.63;5069236;28;20477;-77
2020/12/24 05:56:43;;;;;;;1.58;0.50;;;;;;;3.69;92.52;100895.97;5063115;28;20029;-77
2020/12/24 05:59:14;;;;;;;0.40;0.30;;;;;;;3.67;91.72;100897.56;5057339;28;20501;-76
2020/12/24 06:01:39;;;;;;;0.50;0.30;;;;;;;3.70;92.58;100902.78;5041809;28;20042;-77
2020/12/24 06:04:09;;;;;;;1.27;0.30;;;;;;;3.69;92.67;100919.69;5058124;28;20085;-76
2020/12/24 06:06:43;;;;;;;2.20;0.40;;;;;;;3.70;92.66;100923.97;5042580;28;20024;-77
2020/12/24 06:09:14;;;;;;;1.27;0.33;;;;;;;3.73;92.66;100930.88;5040000;28;20073;-78
2020/12/24 06:11:45;;;;;;;0.60;0.30;;;;;;;3.72;92.79;100932.56;5045945;28;20533;-77
2020/12/24 06:14:28;;;;;;;1.07;0.30;;;;;;;3.77;92.93;100927.72;5058402;28;20029;-77
2020/12/24 06:16:54;;;;;;;0.53;0.23;;;;;;;3.74;92.39;100914.84;5032547;28;20130;-77
2020/12/24 06:19:21;;;;;;;1.55;0.40;;;;;;;3.78;92.44;100923.50;5043894;28;20027;-77
2020/12/24 06:21:46;;;;;;;;;;;;;;;3.77;92.47;100929.38;5034090;28;20083;-76
2020/12/24 06:24:12;;;;;;;0.40;0.20;;;;;;;3.74;92.60;100933.50;5041950;28;19948;-77
2020/12/24 06:26:43;;;;;;;2.88;0.60;;;;;;;3.78;93.18;100942.16;5044979;28;20020;-75
2020/12/24 06:29:10;;;;;;;1.80;0.27;;;;;;;3.78;92.56;100943.81;5071412;23;20036;-77
2020/12/24 06:31:40;;;;;;;0.83;0.40;;;;;;;3.75;92.45;100962.31;5079246;28;20015;-76
2020/12/24 06:34:28;;;;;;;0.87;0.33;;;;;;;3.75;92.67;100970.81;5094619;28;20028;-78
2020/12/24 06:36:55;;;;;;;0.80;0.40;;;;;;;3.73;92.54;100980.03;5098221;28;20378;-78
2020/12/24 06:39:53;;;;;;;2.30;0.57;;;;;;;3.78;93.13;100985.34;5080174;28;20020;-80
2020/12/24 06:42:40;;;;;;;3.53;0.57;;;;;;;3.81;92.89;100997.34;5047798;28;20139;-79
2020/12/24 06:45:27;;;;;;;0.65;0.30;;;;;;;3.83;93.24;101008.47;5076091;28;20381;-79
2020/12/24 06:48:08;;;;;;;0.85;0.40;;;;;;;3.83;93.46;101023.69;5067063;28;20031;-79
2020/12/24 06:50:39;;;;;;;1.37;0.40;;;;;;;3.85;93.50;101028.06;5088230;28;20081;-79
2020/12/24 06:53:30;;;;;;;1.87;0.63;;;;;;;3.90;93.52;101030.84;5096546;28;20023;-79
2020/12/24 06:56:17;;;;;;;2.77;0.50;;;;;;;3.92;93.55;101039.47;5083133;28;20868;-78
2020/12/24 06:58:45;;;;;;;1.57;0.50;;;;;;;3.90;93.93;101051.19;5087404;28;20114;-79
2020/12/24 07:01:26;;;;;;;1.70;0.60;;;;;;;3.94;93.84;101069.25;5097584;28;20031;-78
2020/12/24 07:03:52;;;;;;;2.10;0.80;;;;;;;3.93;94.01;101076.78;5095127;28;20028;-79
2020/12/24 07:06:40;;;;;;;2.60;0.80;;;;;;;3.96;94.12;101092.19;5077822;28;20032;-78
2020/12/24 07:09:10;;;;;;;2.33;0.60;;;;;;;4.08;93.59;101103.03;5063560;28;20028;-78
2020/12/24 07:11:49;;;;;;;1.43;0.60;;;;;;;4.10;93.74;101111.59;5113268;28;20137;-79
2020/12/24 07:14:31;;;;;;;2.20;0.70;;;;;;;4.12;93.81;101115.09;5105300;28;20044;-78
2020/12/24 07:16:58;;;;;;;3.57;1.33;;;;;;;4.13;93.74;101126.13;5096196;28;20024;-78
2020/12/24 07:19:24;;;;;;;4.00;1.20;;;;;;;4.13;93.75;101137.19;5100421;28;20024;-80
2020/12/24 07:21:52;;;;;;;5.00;2.00;;;;;;;4.25;93.91;101137.00;5085917;28;20016;-78
2020/12/24 07:24:28;;;;;;;4.90;2.90;;;;;;;4.14;93.69;101148.22;5093860;28;20020;-80
2020/12/24 07:27:01;;;;;;;4.82;2.42;;;;;;;4.11;93.98;101148.06;5113765;28;20093;-79
2020/12/24 07:29:29;;;;;;;7.40;4.03;;;;;;;4.05;94.29;101149.50;5098067;28;20045;-78
2020/12/24 07:31:56;;;;;;;6.30;3.27;;;;;;;4.09;94.23;101144.56;5098827;28;20076;-79
2020/12/24 07:34:26;;;;;;;6.10;3.37;;;;;;;4.01;94.23;101152.66;5091603;28;20071;-79
2020/12/24 07:36:51;;;;;;;4.93;3.27;;;;;;;4.09;94.11;101160.69;5119494;28;20407;-77
2020/12/24 07:39:17;;;;;;;4.40;3.00;;;;;;;4.03;94.27;101168.00;5118496;28;20142;-78
2020/12/24 07:41:43;;;;;;;5.60;2.92;;;;;;;4.06;94.24;101168.16;5091351;28;20046;-78
2020/12/24 07:44:10;;;;;;;6.10;2.40;;;;;;;4.11;94.13;101176.03;5099648;28;20027;-79
2020/12/24 07:46:35;;;;;;;8.07;3.20;;;;;;;4.07;94.05;101172.44;5080125;28;20020;-79
2020/12/24 07:49:04;;;;;;;5.47;2.92;;;;;;;4.17;94.01;101186.53;5098189;28;20445;-78
2020/12/24 07:51:31;;;;;;;4.83;2.30;;;;;;;4.12;93.78;101188.81;5098078;28;20512;-78
2020/12/24 07:54:05;;;;;;;;;;;;;;;4.10;94.13;101195.50;5098915;28;20020;-78
2020/12/24 07:56:33;;;;;;;6.63;2.20;;;;;;;4.07;93.79;101191.13;5105709;28;19912;-78
2020/12/24 07:59:01;;;;;;;7.77;2.00;;;;;;;4.12;93.98;101191.38;5089549;28;20028;-78
2020/12/24 08:01:26;;;;;;;8.20;2.00;;;;;;;4.07;93.74;101187.69;5076691;28;20367;-78
2020/12/24 08:04:03;;;;;;;4.20;1.70;;;;;;;4.14;94.05;101189.78;5099937;28;20030;-80
2020/12/24 08:06:28;;;;;;;3.78;1.55;;;;;;;4.16;93.69;101197.50;5094755;28;20767;-77
2020/12/24 08:09:07;;;;;;;3.72;1.70;;;;;;;4.17;93.41;101200.13;5100706;28;20035;-80
2020/12/24 08:11:32;;;;;;;2.70;1.17;;;;;;;4.25;93.25;101209.06;5081594;28;20032;-80
2020/12/24 08:13:58;;;;;;;3.10;1.02;;;;;;;4.35;92.83;101216.41;5100391;28;20039;-80
2020/12/24 08:16:26;;;;;;;3.40;1.20;;;;;;;4.43;92.50;101223.56;5100646;28;20057;-79
2020/12/24 08:19:03;;;;;;;2.97;0.90;;;;;;;4.35;92.46;101229.09;5101904;28;20627;-79
2020/12/24 08:21:35;;;;;;;3.40;1.00;;;;;;;4.41;92.58;101225.13;5121151;28;20128;-79
2020/12/24 08:24:12;;;;;;;1.80;0.70;;;;;;;4.46;91.76;101236.44;5122277;28;20034;-79
2020/12/24 08:26:37;;;;;;;2.93;0.83;;;;;;;4.48;92.36;101237.41;5119949;28;20024;-79
2020/12/24 08:29:07;;;;;;;1.77;0.80;;;;;;;4.49;92.33;101234.94;5104130;28;20097;-79
2020/12/24 08:31:37;;;;;;;1.77;0.60;;;;;;;4.49;92.57;101246.78;5084435;28;20461;-80
2020/12/24 08:34:07;;;;;;;1.83;0.70;;;;;;;4.53;92.31;101258.88;5104176;28;20102;-79
2020/12/24 08:36:40;;;;;;;3.77;0.90;;;;;;;4.46;92.99;101259.31;5102426;28;20032;-80
2020/12/24 08:39:07;;;;;;;2.83;0.73;;;;;;;4.56;92.61;101272.66;5085589;28;20047;-79
2020/12/24 08:41:36;;;;;;;6.60;1.00;;;;;;;4.56;92.21;101274.31;5082749;28;20023;-80
2020/12/24 08:44:03;;;;;;;2.20;1.00;;;;;;;4.61;91.53;101283.09;5110464;28;20024;-79
2020/12/24 08:46:28;;;;;;;3.13;0.90;;;;;;;4.65;92.71;101279.91;5108801;28;20027;-78
2020/12/24 08:48:54;;;;;;;2.00;0.73;;;;;;;4.65;92.20;101288.41;5091048;28;20019;-78
2020/12/24 08:51:20;;;;;;;2.20;0.80;;;;;;;4.68;92.18;101295.34;5107515;28;20034;-81
2020/12/24 08:53:45;;;;;;;2.85;1.00;;;;;;;4.64;91.95;101291.75;5124717;28;20274;-81
2020/12/24 08:56:15;;;;;;;3.50;1.02;;;;;;;4.70;92.30;101296.28;5100178;28;20114;-78
2020/12/24 08:58:48;;;;;;;3.20;0.80;;;;;;;4.75;91.60;101306.72;5120358;28;20034;-79
2020/12/24 09:01:14;;;;;;;8.07;1.10;;;;;;;4.75;91.68;101317.78;5092179;28;20040;-78
2020/12/24 09:03:39;;;;;;;4.10;0.93;;;;;;;4.77;91.34;101320.41;5110583;28;20016;-78
2020/12/24 09:06:13;;;;;;;3.80;1.30;;;;;;;4.81;91.09;101314.69;5094960;28;20051;-77
2020/12/24 09:08:40;;;;;;;8.90;1.20;;;;;;;4.80;90.97;101318.91;5112372;28;20072;-77
2020/12/24 09:11:05;;;;;;;6.77;1.37;;;;;;;4.80;90.92;101311.25;5090953;28;20012;-78
2020/12/24 09:13:31;;;;;;;4.85;1.10;;;;;;;4.82;90.74;101317.31;5108288;28;20108;-78
2020/12/24 09:15:56;;;;;;;5.00;0.95;;;;;;;4.84;90.95;101328.44;5121720;28;20123;-78
2020/12/24 09:18:22;;;;;;;6.97;1.30;;;;;;;4.85;91.10;101332.75;5128834;28;20027;-77
2020/12/24 09:20:47;;;;;;;5.10;1.47;;;;;;;4.90;90.80;101350.84;5124015;28;20027;-78
2020/12/24 09:23:13;;;;;;;7.03;1.50;;;;;;;4.90;91.45;101349.16;5088703;28;20066;-78
2020/12/24 09:25:43;;;;;;;14.33;1.47;;;;;;;4.87;91.38;101351.53;5102691;28;20461;-78
2020/12/24 09:28:22;;;;;;;4.00;1.00;;;;;;;5.00;91.02;101360.72;5109101;28;20045;-78
2020/12/24 09:30:48;;;;;;;4.80;1.60;;;;;;;5.02;90.84;101368.44;5122952;28;20019;-78
2020/12/24 09:33:14;;;;;;;8.47;1.60;;;;;;;5.04;90.78;101372.81;5091576;28;20076;-78
2020/12/24 09:35:39;;;;;;;7.35;1.60;;;;;;;5.08;90.86;101381.50;5123499;28;20073;-78
2020/12/24 09:38:04;;;;;;;11.17;2.00;;;;;;;5.14;90.73;101389.47;5128641;28;20019;-78
2020/12/24 09:40:29;;;;;;;10.47;2.47;;;;;;;5.10;90.62;101396.06;5091666;28;20282;-78
2020/12/24 09:42:56;;;;;;;10.77;1.83;;;;;;;5.15;90.46;101389.53;5095016;28;20337;-79
2020/12/24 09:45:23;;;;;;;8.40;2.77;;;;;;;5.17;91.00;101397.25;5125109;28;20445;-79
2020/12/24 09:47:49;;;;;;;7.30;1.70;;;;;;;5.24;91.09;101397.69;5115287;28;20261;-78
2020/12/24 09:50:14;;;;;;;12.55;2.33;;;;;;;5.32;90.97;101398.09;5086813;28;20053;-79
2020/12/24 09:52:40;;;;;;;9.35;1.40;;;;;;;5.34;90.77;101406.72;5090648;28;20016;-79
2020/12/24 09:55:06;;;;;;;10.13;1.80;;;;;;;5.45;90.62;101408.13;5095429;28;20028;-80
2020/12/24 09:57:33;;;;;;;5.18;1.42;;;;;;;5.49;89.84;101404.97;5112594;28;20012;-79
2020/12/24 09:59:58;;;;;;;7.73;1.97;;;;;;;5.52;90.17;101414.44;5090918;28;20035;-79
2020/12/24 10:02:26;;;;;;;8.15;1.73;;;;;;;5.55;90.16;101418.06;5114374;28;20028;-79
2020/12/24 10:04:51;;;;;;;9.77;1.80;;;;;;;5.51;90.41;101426.28;5119205;28;20028;-79
2020/12/24 10:07:17;;;;;;;11.75;1.50;;;;;;;5.51;90.39;101433.94;5098777;28;20024;-80
2020/12/24 10:09:42;;;;;;;7.68;1.38;;;;;;;5.41;90.05;101428.28;5106870;28;20021;-81
2020/12/24 10:12:07;;;;;;;9.63;1.57;;;;;;;5.33;90.23;101432.97;5121478;28;20014;-80
2020/12/24 10:14:33;;;;;;;8.50;2.17;;;;;;;5.27;91.24;101448.81;5087699;28;20012;-82
2020/12/24 10:17:03;;;;;;;8.57;2.33;;;;;;;5.28;91.70;101452.22;5089143;28;20278;-82
2020/12/24 10:19:28;;;;;;;13.50;2.07;;;;;;;5.15;90.51;101449.78;5118734;28;20081;-83
2020/12/24 10:21:53;;;;;;;7.97;1.20;;;;;;;5.19;90.14;101442.41;5118237;28;20019;-82
2020/12/24 10:24:19;;;;;;;12.13;1.50;;;;;;;5.21;90.47;101445.94;5117777;28;20035;-82
2020/12/24 10:26:44;;;;;;;12.73;1.43;;;;;;;5.27;89.29;101440.28;5102803;28;20271;-82
2020/12/24 10:29:09;;;;;;;11.32;1.20;;;;;;;5.30;89.29;101440.44;5123224;28;20114;-82
2020/12/24 10:31:41;;;;;;;6.75;1.13;;;;;;;5.30;89.45;101431.13;5100042;28;20024;-83
2020/12/24 10:34:06;;;;;;;11.20;1.20;;;;;;;5.47;89.91;101439.69;5116580;28;20030;-80
2020/12/24 10:36:31;;;;;;;17.20;2.10;;;;;;;5.56;88.75;101435.09;5123648;28;20812;-82
2020/12/24 10:38:57;;;;;;;13.45;2.50;;;;;;;5.67;88.22;101437.31;5103451;28;20057;-84
2020/12/24 10:41:22;;;;;;;14.40;2.13;;;;;;;5.73;87.01;101437.63;5110942;28;20106;-81
2020/12/24 10:43:47;;;;;;;7.03;1.13;;;;;;;5.70;87.76;101419.63;5117266;28;20295;-82
2020/12/24 10:46:21;;;;;;;12.85;2.13;;;;;;;5.69;87.61;101430.63;5118170;28;20027;-82
2020/12/24 10:48:46;;;;;;;10.93;1.70;;;;;;;5.78;88.18;101431.97;5110781;28;20115;-79
2020/12/24 10:51:13;;;;;;;7.57;1.48;;;;;;;5.85;88.23;101428.06;5121172;28;20027;-81
2020/12/24 10:53:38;;;;;;;10.03;1.60;;;;;;;5.90;87.92;101444.53;5110185;28;20020;-81
2020/12/24 10:56:04;;;;;;;7.53;1.47;;;;;;;5.96;86.97;101431.22;5113419;28;20012;-80
2020/12/24 10:58:29;;;;;;;12.70;1.73;;;;;;;6.00;86.85;101428.91;5123463;28;20301;-80
2020/12/24 11:00:54;;;;;;;6.13;1.13;;;;;;;6.01;87.50;101429.78;5107040;28;20050;-81
2020/12/24 11:03:21;;;;;;;12.75;1.48;;;;;;;6.09;87.78;101429.38;5092996;28;20027;-81
2020/12/24 11:05:46;;;;;;;10.33;2.30;;;;;;;6.10;88.02;101438.78;5102910;28;20027;-79
2020/12/24 11:08:11;;;;;;;12.60;1.40;;;;;;;6.19;87.07;101431.63;5108315;28;20471;-82
2020/12/24 11:10:37;;;;;;;12.50;1.60;;;;;;;6.27;87.17;101431.13;5125553;28;20076;-82
2020/12/24 11:13:02;;;;;;;15.07;2.50;;;;;;;6.34;87.30;101423.84;5110595;28;20262;-82
2020/12/24 11:15:27;;;;;;;14.60;1.88;;;;;;;6.51;86.83;101427.25;5102504;28;20110;-80
2020/12/24 11:17:53;;;;;;;16.45;1.58;;;;;;;6.53;85.91;101439.28;5107459;28;20517;-79
2020/12/24 11:20:18;;;;;;;11.17;1.40;;;;;;;6.55;86.16;101436.78;5110218;28;20055;-81
2020/12/24 11:22:43;;;;;;;7.00;1.43;;;;;;;6.61;84.86;101431.13;5117705;28;20020;-81
2020/12/24 11:25:08;;;;;;;17.17;1.70;;;;;;;6.56;83.94;101428.34;5101250;28;20281;-80
2020/12/24 11:27:33;;;;;;;13.17;1.50;;;;;;;6.54;85.06;101432.50;5101829;28;20054;-82
2020/12/24 11:29:59;;;;;;;7.97;1.50;;;;;;;6.46;84.39;101429.53;5110352;28;20031;-81
2020/12/24 11:32:24;;;;;;;11.83;1.43;;;;;;;6.46;85.05;101438.88;5102612;28;20032;-79